Lebo, Pennsylvania
Current Conditions -  °F | °C
As of 11:56 AM on Sunday 23 Nov 2014 (Local Time) from KCXY Reporting Station
Clear Clear  
Wind Chill: 50°   Ceiling: Unl
Heat Index: 50°   Visibility: 10mi
Dew Point: 22°   Wind: 5mph
Humidity: 33%   Direction: 90°E
Pressure: 30.14"   Gusts: NA
Location:  40.3086°N, 77.3363°W
Report Text: KCXY 231656Z 09004KT 10SM CLR 10/M06 A3014 RMK AO2 SLP209 T01001056
Loading
Personal Weather Stations






























Interactive Weather Map New forecast layout! Learn more

10-Day Weather Forecast

Advertisements
Track Severe Weather on mobile